createdAt,value
2019-02-19T00:00:52.776Z,61.80
2019-02-19T00:03:20.620Z,61.70
2019-02-19T00:05:48.368Z,61.60
2019-02-19T00:08:15.728Z,62.50
2019-02-19T00:10:43.190Z,62.10
2019-02-19T00:13:11.150Z,61.80
2019-02-19T00:15:39.222Z,61.20
2019-02-19T00:18:06.584Z,61.60
2019-02-19T00:20:34.332Z,61.30
2019-02-19T00:23:02.116Z,61.20
2019-02-19T00:25:29.530Z,61.10
2019-02-19T00:27:57.391Z,61.30
2019-02-19T00:30:25.454Z,61.90
2019-02-19T00:32:54.397Z,61.70
2019-02-19T00:35:21.747Z,62.20
2019-02-19T00:37:49.129Z,61.70
2019-02-19T00:40:16.887Z,62.10
2019-02-19T00:42:44.382Z,62.40
2019-02-19T00:45:16.707Z,62.70
2019-02-19T00:47:41.371Z,62.40
2019-02-19T00:50:09.479Z,61.80
2019-02-19T00:52:36.978Z,61.60
2019-02-19T00:55:04.423Z,61.30
2019-02-19T00:57:31.799Z,60.90
2019-02-19T00:59:59.682Z,61.00
2019-02-19T01:02:27.226Z,60.70
2019-02-19T01:04:54.999Z,61.00
2019-02-19T01:07:22.537Z,61.30
2019-02-19T01:09:50.006Z,61.30
2019-02-19T01:12:18.253Z,61.30
2019-02-19T01:14:45.932Z,61.40
2019-02-19T01:17:13.432Z,61.30
2019-02-19T01:19:40.922Z,61.20
2019-02-19T01:22:08.403Z,61.00
2019-02-19T01:24:35.867Z,60.50
2019-02-19T01:27:03.702Z,60.20
2019-02-19T01:29:31.320Z,59.80
2019-02-19T01:31:58.954Z,59.50
2019-02-19T01:34:45.801Z,59.30
2019-02-19T01:37:13.185Z,59.40
2019-02-19T01:39:41.526Z,59.20
2019-02-19T01:42:09.502Z,59.10
2019-02-19T01:44:37.270Z,59.50
2019-02-19T01:47:04.711Z,59.80
2019-02-19T01:49:32.239Z,59.90
2019-02-19T01:52:00.047Z,59.70
2019-02-19T01:54:27.458Z,59.50
2019-02-19T01:56:54.776Z,59.30
2019-02-19T01:59:22.707Z,59.30
2019-02-19T02:01:50.233Z,58.40
2019-02-19T02:04:18.258Z,59.10
2019-02-19T02:06:45.869Z,59.70
2019-02-19T02:09:13.429Z,59.20
2019-02-19T02:11:40.792Z,59.70
2019-02-19T02:14:08.189Z,60.80
2019-02-19T02:16:35.696Z,61.70
2019-02-19T02:19:03.237Z,62.50
2019-02-19T02:21:31.152Z,62.50
2019-02-19T02:23:58.689Z,62.00
2019-02-19T02:26:26.584Z,61.70
2019-02-19T02:28:54.981Z,60.10
2019-02-19T02:31:22.457Z,60.30
2019-02-19T02:33:49.941Z,60.30
2019-02-19T02:36:17.375Z,60.60
2019-02-19T02:38:45.018Z,60.70
2019-02-19T02:41:12.953Z,60.80
2019-02-19T02:43:40.344Z,59.90
2019-02-19T02:46:08.087Z,60.40
2019-02-19T02:48:35.421Z,60.90
2019-02-19T02:51:02.773Z,61.30
2019-02-19T02:53:30.150Z,61.20
2019-02-19T02:55:58.192Z,61.00
2019-02-19T02:58:26.110Z,61.00
2019-02-19T03:00:53.454Z,63.50
2019-02-19T03:03:21.188Z,64.40
2019-02-19T03:06:16.174Z,64.90
2019-02-19T03:08:43.568Z,64.60
2019-02-19T03:11:11.021Z,64.10
2019-02-19T03:13:38.936Z,63.00
2019-02-19T03:16:06.432Z,62.30
2019-02-19T03:18:34.099Z,61.60
2019-02-19T03:21:01.476Z,61.30
2019-02-19T03:23:28.973Z,61.00
2019-02-19T03:25:56.856Z,61.20
2019-02-19T03:28:24.683Z,61.20
2019-02-19T03:30:52.540Z,61.70
2019-02-19T03:33:20.105Z,62.10
2019-02-19T03:35:47.640Z,62.30
2019-02-19T03:38:15.045Z,62.40
2019-02-19T03:40:42.720Z,62.60
2019-02-19T03:43:10.368Z,62.50
2019-02-19T03:45:38.519Z,62.90
2019-02-19T03:48:05.995Z,62.80
2019-02-19T03:50:33.454Z,63.40
2019-02-19T03:53:00.822Z,63.30
2019-02-19T03:55:28.264Z,62.80
2019-02-19T03:57:56.089Z,62.20
2019-02-19T04:00:23.469Z,61.50
2019-02-19T04:02:51.244Z,61.00
2019-02-19T04:05:18.740Z,60.80
2019-02-19T04:07:46.546Z,60.30
2019-02-19T04:10:14.075Z,60.00
2019-02-19T04:12:42.154Z,59.70
2019-02-19T04:15:09.636Z,59.40
2019-02-19T04:17:37.110Z,59.90
2019-02-19T04:20:04.900Z,58.80
2019-02-19T04:22:32.681Z,58.70
2019-02-19T04:25:00.296Z,58.60
2019-02-19T04:27:27.988Z,58.50
2019-02-19T04:29:55.443Z,58.30
2019-02-19T04:32:22.969Z,58.20
2019-02-19T04:34:50.956Z,58.20
2019-02-19T04:37:18.469Z,58.20
2019-02-19T04:39:45.897Z,58.20
2019-02-19T04:42:14.058Z,58.30
2019-02-19T04:44:41.468Z,58.30
2019-02-19T04:47:08.930Z,58.30
2019-02-19T04:49:36.774Z,58.20
2019-02-19T04:52:04.412Z,58.60
2019-02-19T04:54:32.237Z,58.90
2019-02-19T04:57:00.025Z,59.10
2019-02-19T04:59:27.657Z,59.10
2019-02-19T05:01:55.141Z,59.30
2019-02-19T05:04:23.618Z,59.50
2019-02-19T05:06:51.150Z,59.50
2019-02-19T05:09:19.210Z,59.50
2019-02-19T05:11:46.536Z,59.40
2019-02-19T05:14:13.915Z,59.30
2019-02-19T05:16:41.417Z,59.20
2019-02-19T05:19:09.425Z,59.20
2019-02-19T05:21:37.630Z,59.10
2019-02-19T05:24:05.260Z,58.80
2019-02-19T05:26:32.773Z,58.60
2019-02-19T05:29:00.490Z,58.30
2019-02-19T05:31:28.270Z,58.30
2019-02-19T05:33:56.747Z,58.10
2019-02-19T05:36:24.149Z,58.20
2019-02-19T05:38:51.513Z,58.10
2019-02-19T05:41:19.186Z,58.00
2019-02-19T05:43:46.624Z,57.90
2019-02-19T05:46:14.094Z,57.70
2019-02-19T05:48:41.428Z,57.70
2019-02-19T05:51:09.169Z,57.70
2019-02-19T05:53:36.671Z,58.00
2019-02-19T05:56:04.148Z,58.00
2019-02-19T05:58:31.767Z,58.10
2019-02-19T06:00:59.577Z,58.00
2019-02-19T06:03:27.104Z,58.00
2019-02-19T06:05:54.521Z,58.10
2019-02-19T06:08:21.996Z,58.00
2019-02-19T06:10:49.494Z,58.40
2019-02-19T06:13:16.986Z,58.60
2019-02-19T06:15:45.145Z,58.70
2019-02-19T06:18:12.802Z,58.70
2019-02-19T06:20:40.164Z,58.50
2019-02-19T06:23:07.514Z,58.50
2019-02-19T06:25:35.976Z,58.70
2019-02-19T06:28:03.311Z,58.70
2019-02-19T06:30:30.982Z,59.00
2019-02-19T06:32:58.656Z,59.50
2019-02-19T06:35:26.066Z,59.70
2019-02-19T06:37:53.530Z,59.90
2019-02-19T06:40:23.674Z,59.70
2019-02-19T06:42:51.018Z,60.10
2019-02-19T06:45:19.033Z,60.00
2019-02-19T06:47:46.552Z,60.00
2019-02-19T06:50:14.041Z,59.80
2019-02-19T06:52:41.461Z,59.60
2019-02-19T06:55:09.467Z,59.40
2019-02-19T06:57:37.367Z,59.00
2019-02-19T07:00:05.729Z,58.40
2019-02-19T07:02:42.419Z,58.10
2019-02-19T07:05:21.464Z,57.70
2019-02-19T07:07:49.170Z,57.50
2019-02-19T07:10:17.134Z,57.40
2019-02-19T07:12:44.899Z,57.10
2019-02-19T07:15:12.384Z,57.20
2019-02-19T07:17:40.129Z,57.10
2019-02-19T07:20:07.659Z,57.10
2019-02-19T07:22:36.275Z,56.80
2019-02-19T07:25:04.007Z,56.60
2019-02-19T07:27:31.873Z,56.70
2019-02-19T07:29:59.683Z,56.70
2019-02-19T07:32:27.187Z,57.60
2019-02-19T07:34:54.711Z,57.20
2019-02-19T07:37:22.554Z,57.20
2019-02-19T07:39:50.103Z,57.00
2019-02-19T07:42:17.991Z,57.00
2019-02-19T07:44:45.346Z,57.00
2019-02-19T07:47:13.250Z,57.10
2019-02-19T07:49:41.051Z,57.00
2019-02-19T07:52:08.572Z,57.30
2019-02-19T07:54:35.903Z,57.10
2019-02-19T07:57:03.632Z,57.60
2019-02-19T07:59:31.697Z,57.20
2019-02-19T08:01:59.298Z,56.90
2019-02-19T08:04:27.427Z,57.00
2019-02-19T08:06:55.324Z,56.90
2019-02-19T08:09:22.810Z,56.90
2019-02-19T08:11:50.195Z,57.10
2019-02-19T08:14:17.680Z,57.20
2019-02-19T08:16:45.445Z,57.20
2019-02-19T08:19:12.799Z,57.20
2019-02-19T08:21:40.279Z,57.00
2019-02-19T08:24:07.759Z,56.80
2019-02-19T08:26:35.260Z,56.70
2019-02-19T08:29:13.076Z,57.00
2019-02-19T08:31:32.130Z,56.50
2019-02-19T08:33:59.685Z,56.60
2019-02-19T08:36:27.168Z,56.30
2019-02-19T08:38:54.633Z,56.60
2019-02-19T08:41:22.157Z,56.80
2019-02-19T08:43:49.595Z,56.90
2019-02-19T08:46:17.118Z,56.90
2019-02-19T08:48:44.603Z,57.20
2019-02-19T08:51:12.136Z,56.90
2019-02-19T08:53:39.999Z,57.40
2019-02-19T08:56:07.757Z,57.50
2019-02-19T08:58:35.344Z,57.80
2019-02-19T09:01:02.798Z,57.90
2019-02-19T09:03:31.735Z,58.10
2019-02-19T09:05:59.892Z,58.20
2019-02-19T09:08:27.764Z,58.30
2019-02-19T09:10:55.080Z,58.40
2019-02-19T09:13:22.935Z,58.50
2019-02-19T09:15:50.541Z,58.40
2019-02-19T09:18:18.216Z,58.50
2019-02-19T09:20:45.964Z,58.50
2019-02-19T09:23:13.888Z,58.50
2019-02-19T09:25:41.499Z,58.80
2019-02-19T09:28:09.824Z,58.50
2019-02-19T09:30:37.364Z,58.60
2019-02-19T09:33:04.885Z,58.70
2019-02-19T09:35:32.569Z,58.70
2019-02-19T09:37:59.940Z,59.00
2019-02-19T09:40:27.643Z,59.10
2019-02-19T09:42:55.153Z,59.30
2019-02-19T09:45:22.474Z,59.30
2019-02-19T09:47:50.149Z,59.40
2019-02-19T09:50:18.242Z,59.40
2019-02-19T09:52:46.105Z,59.40
2019-02-19T09:55:13.460Z,59.50
2019-02-19T09:57:40.867Z,59.60
2019-02-19T10:00:09.600Z,59.70
2019-02-19T10:02:37.345Z,60.20
2019-02-19T10:05:05.691Z,59.70
2019-02-19T10:07:33.159Z,59.70
2019-02-19T10:10:00.918Z,59.70
2019-02-19T10:12:28.524Z,59.50
2019-02-19T10:14:55.846Z,59.50
2019-02-19T10:17:23.228Z,59.50
2019-02-19T10:19:50.734Z,59.40
2019-02-19T10:22:18.230Z,59.10
2019-02-19T10:24:45.621Z,58.80
2019-02-19T10:27:13.149Z,58.60
2019-02-19T10:29:40.662Z,58.80
2019-02-19T10:32:08.208Z,58.80
2019-02-19T10:34:35.958Z,58.70
2019-02-19T10:37:03.292Z,58.60
2019-02-19T10:39:31.043Z,58.20
2019-02-19T10:41:58.698Z,58.20
2019-02-19T10:44:26.770Z,58.20
2019-02-19T10:46:54.104Z,58.20
2019-02-19T10:49:21.708Z,58.40
2019-02-19T10:51:49.627Z,59.10
2019-02-19T10:54:17.075Z,58.20
2019-02-19T10:56:44.886Z,58.40
2019-02-19T10:59:13.043Z,58.60
2019-02-19T11:01:40.378Z,58.80
2019-02-19T11:04:07.872Z,58.70
2019-02-19T11:06:35.634Z,58.70
2019-02-19T11:09:04.714Z,58.90
2019-02-19T11:11:34.039Z,58.90
2019-02-19T11:14:01.420Z,58.60
2019-02-19T11:16:28.861Z,59.20
2019-02-19T11:18:56.239Z,59.40
2019-02-19T11:21:23.637Z,59.10
2019-02-19T11:23:51.302Z,59.10
2019-02-19T11:26:18.646Z,59.30
2019-02-19T11:28:46.470Z,59.30
2019-02-19T11:31:13.946Z,59.60
2019-02-19T11:33:41.425Z,60.30
2019-02-19T11:36:08.772Z,59.70
2019-02-19T11:38:37.497Z,60.00
2019-02-19T11:41:04.809Z,60.00
2019-02-19T11:43:33.202Z,59.70
2019-02-19T11:46:00.719Z,59.80
2019-02-19T11:48:36.632Z,59.80
2019-02-19T11:50:58.291Z,59.90
2019-02-19T11:53:25.606Z,59.50
2019-02-19T11:55:53.006Z,59.20
2019-02-19T11:58:20.554Z,59.50
2019-02-19T12:00:48.073Z,59.70
2019-02-19T12:03:15.469Z,59.70
2019-02-19T12:05:43.259Z,60.00
2019-02-19T12:08:10.641Z,60.70
2019-02-19T12:10:38.125Z,60.90
2019-02-19T12:13:05.744Z,61.40
2019-02-19T12:15:35.375Z,61.50
2019-02-19T12:18:02.962Z,61.10
2019-02-19T12:20:30.615Z,61.30
2019-02-19T12:22:58.277Z,61.00
2019-02-19T12:25:25.845Z,61.40
2019-02-19T12:27:53.339Z,62.10
2019-02-19T12:30:21.203Z,62.30
2019-02-19T12:32:48.786Z,62.60
2019-02-19T12:35:16.892Z,62.30
2019-02-19T12:37:44.271Z,62.60
2019-02-19T12:40:11.795Z,63.10
2019-02-19T12:42:39.737Z,63.70
2019-02-19T12:45:08.770Z,64.10
2019-02-19T12:47:36.611Z,64.80
2019-02-19T12:50:04.679Z,64.50
2019-02-19T12:52:32.318Z,63.30
2019-02-19T12:55:00.280Z,63.60
2019-02-19T12:57:27.772Z,63.90
2019-02-19T12:59:56.752Z,64.20
2019-02-19T13:02:24.480Z,64.50
2019-02-19T13:04:52.013Z,65.00
2019-02-19T13:07:19.687Z,65.50
2019-02-19T13:09:47.423Z,65.30
2019-02-19T13:12:14.809Z,65.80
2019-02-19T13:14:42.740Z,66.10
2019-02-19T13:17:11.222Z,66.60
2019-02-19T13:19:39.816Z,66.60
2019-02-19T13:22:07.385Z,67.20
2019-02-19T13:24:34.908Z,67.40
2019-02-19T13:27:02.683Z,67.50
2019-02-19T13:29:30.171Z,67.50
2019-02-19T13:31:57.936Z,67.70
2019-02-19T13:34:25.332Z,68.00
2019-02-19T13:36:53.141Z,68.50
2019-02-19T13:39:20.580Z,68.40
2019-02-19T13:41:48.122Z,68.50
2019-02-19T13:44:15.789Z,69.20
2019-02-19T13:46:44.176Z,69.80
2019-02-19T13:49:12.592Z,69.70
2019-02-19T13:51:40.167Z,69.20
2019-02-19T13:54:12.048Z,69.90
2019-02-19T13:56:39.754Z,68.80
2019-02-19T13:59:07.120Z,68.60
2019-02-19T14:01:35.162Z,68.20
2019-02-19T14:04:02.509Z,68.00
2019-02-19T14:06:30.035Z,67.80
2019-02-19T14:08:57.418Z,67.90
2019-02-19T14:11:24.831Z,67.70
2019-02-19T14:14:20.738Z,67.50
2019-02-19T14:16:55.008Z,66.50
2019-02-19T14:19:40.870Z,67.40
2019-02-19T14:22:31.169Z,68.20
2019-02-19T14:25:16.846Z,69.30
2019-02-19T14:28:02.550Z,68.70
2019-02-19T14:30:52.581Z,68.40
2019-02-19T14:33:38.524Z,69.70
2019-02-19T14:36:17.554Z,69.60
2019-02-19T14:39:23.657Z,69.20
2019-02-19T14:42:08.085Z,68.50
2019-02-19T14:45:10.194Z,68.20
2019-02-19T14:47:46.175Z,67.90
2019-02-19T14:50:32.044Z,67.70
2019-02-19T14:53:37.031Z,68.00
2019-02-19T14:56:24.061Z,68.80
2019-02-19T14:59:09.539Z,70.00
2019-02-19T15:01:56.310Z,69.70
2019-02-19T15:04:58.747Z,69.30
2019-02-19T15:07:34.461Z,68.80
2019-02-19T15:10:12.843Z,68.30
2019-02-19T15:13:06.405Z,68.20
2019-02-19T15:15:47.094Z,67.90
2019-02-19T15:18:32.727Z,67.20
2019-02-19T15:21:37.627Z,67.50
2019-02-19T15:24:33.346Z,68.00
2019-02-19T15:27:23.233Z,68.70
2019-02-19T15:30:07.126Z,69.10
2019-02-19T15:32:54.153Z,69.10
2019-02-19T15:35:41.489Z,69.30
2019-02-19T15:38:31.402Z,69.80
2019-02-19T15:41:18.651Z,69.10
2019-02-19T15:44:11.120Z,68.20
2019-02-19T15:46:45.973Z,69.10
2019-02-19T15:49:47.311Z,68.90
2019-02-19T15:52:24.831Z,69.10
2019-02-19T15:55:10.074Z,68.80
2019-02-19T15:57:46.101Z,68.70
2019-02-19T16:00:32.822Z,68.50
2019-02-19T16:03:06.201Z,67.90
2019-02-19T16:05:49.657Z,69.10
2019-02-19T16:08:36.637Z,69.40
2019-02-19T16:11:22.985Z,70.10
2019-02-19T16:14:16.711Z,69.20
2019-02-19T16:17:19.665Z,69.70
2019-02-19T16:20:12.849Z,70.20
2019-02-19T16:22:58.229Z,71.70
2019-02-19T16:25:45.531Z,71.20
2019-02-19T16:28:42.053Z,71.10
2019-02-19T16:31:23.249Z,70.60
2019-02-19T16:34:16.133Z,69.90
2019-02-19T16:36:49.182Z,69.70
2019-02-19T16:39:29.115Z,69.40
2019-02-19T16:42:05.151Z,69.20
2019-02-19T16:44:41.139Z,68.80
2019-02-19T16:47:36.919Z,68.90
2019-02-19T16:50:33.574Z,69.50
2019-02-19T16:53:23.838Z,70.30
2019-02-19T16:56:16.160Z,70.60
2019-02-19T16:58:51.586Z,70.80
2019-02-19T17:01:44.587Z,70.60
2019-02-19T17:04:27.569Z,70.50
2019-02-19T17:07:03.933Z,70.20
2019-02-19T17:09:56.285Z,69.80
2019-02-19T17:12:49.208Z,69.40
2019-02-19T17:15:39.350Z,69.10
2019-02-19T17:18:25.180Z,68.70
2019-02-19T17:21:07.450Z,69.00
2019-02-19T17:23:43.894Z,69.10
2019-02-19T17:26:22.328Z,68.90
2019-02-19T17:28:58.797Z,68.50
2019-02-19T17:31:35.405Z,68.90
2019-02-19T17:34:31.535Z,69.30
2019-02-19T17:37:30.924Z,69.30
2019-02-19T17:40:18.437Z,69.30
2019-02-19T17:43:08.494Z,69.20
2019-02-19T17:45:58.211Z,68.80
2019-02-19T17:48:40.252Z,68.90
2019-02-19T17:51:29.862Z,68.60
2019-02-19T17:54:20.059Z,68.30
2019-02-19T17:57:16.339Z,67.90
2019-02-19T18:00:08.048Z,67.80
2019-02-19T18:02:55.839Z,68.40
2019-02-19T18:05:45.193Z,68.50
2019-02-19T18:08:31.232Z,68.30
2019-02-19T18:11:12.969Z,68.60
2019-02-19T18:13:46.372Z,69.40
2019-02-19T18:16:33.413Z,69.60
2019-02-19T18:19:01.681Z,69.80
2019-02-19T18:21:29.479Z,68.90
2019-02-19T18:23:57.186Z,69.00
2019-02-19T18:26:24.800Z,68.30
2019-02-19T18:28:52.653Z,68.70
2019-02-19T18:31:20.219Z,69.40
2019-02-19T18:33:47.732Z,68.70
2019-02-19T18:36:15.581Z,68.90
2019-02-19T18:38:43.598Z,69.60
2019-02-19T18:41:11.138Z,69.80
2019-02-19T18:43:38.877Z,69.40
2019-02-19T18:46:06.596Z,69.70
2019-02-19T18:48:34.536Z,69.80
2019-02-19T18:51:02.053Z,69.70
2019-02-19T18:53:29.919Z,69.80
2019-02-19T18:55:57.976Z,69.30
2019-02-19T18:58:25.632Z,69.60
2019-02-19T19:00:53.385Z,70.00
2019-02-19T19:03:20.794Z,70.00
2019-02-19T19:05:48.341Z,69.60
2019-02-19T19:08:16.261Z,69.30
2019-02-19T19:10:56.308Z,68.90
2019-02-19T19:13:24.235Z,69.00
2019-02-19T19:15:51.947Z,69.20
2019-02-19T19:18:19.703Z,69.20
2019-02-19T19:20:47.984Z,69.30
2019-02-19T19:23:15.964Z,69.70
2019-02-19T19:25:43.299Z,69.40
2019-02-19T19:28:10.636Z,69.50
2019-02-19T19:30:38.029Z,69.10
2019-02-19T19:33:06.094Z,68.50
2019-02-19T19:35:33.739Z,69.90
2019-02-19T19:38:01.600Z,69.50
2019-02-19T19:40:29.345Z,69.50
2019-02-19T19:42:57.680Z,68.50
2019-02-19T19:45:24.998Z,68.30
2019-02-19T19:47:52.767Z,68.60
2019-02-19T19:50:20.630Z,68.30
2019-02-19T19:52:48.470Z,67.90
2019-02-19T19:55:16.087Z,67.40
2019-02-19T19:57:43.855Z,67.30
2019-02-19T20:00:11.688Z,66.80
2019-02-19T20:02:39.840Z,67.20
2019-02-19T20:05:07.320Z,67.70
2019-02-19T20:07:35.799Z,68.00
2019-02-19T20:10:03.262Z,68.70
2019-02-19T20:12:32.046Z,68.50
2019-02-19T20:14:59.432Z,68.00
2019-02-19T20:17:27.046Z,67.60
2019-02-19T20:19:54.773Z,67.40
2019-02-19T20:22:22.199Z,66.70
2019-02-19T20:24:49.516Z,66.50
2019-02-19T20:27:17.266Z,66.50
2019-02-19T20:29:44.777Z,67.10
2019-02-19T20:32:12.713Z,67.30
2019-02-19T20:34:40.055Z,68.00
2019-02-19T20:37:07.552Z,68.40
2019-02-19T20:39:35.617Z,68.20
2019-02-19T20:42:03.107Z,66.70
2019-02-19T20:44:30.871Z,66.50
2019-02-19T20:46:58.694Z,67.70
2019-02-19T20:49:26.134Z,66.90
2019-02-19T20:51:53.815Z,66.60
2019-02-19T20:54:21.521Z,66.70
2019-02-19T20:56:50.571Z,66.40
2019-02-19T20:59:18.225Z,66.80
2019-02-19T21:01:46.262Z,66.70
2019-02-19T21:04:13.595Z,67.20
2019-02-19T21:06:41.438Z,67.20
2019-02-19T21:09:09.202Z,67.10
2019-02-19T21:11:38.436Z,67.50
2019-02-19T21:14:06.025Z,67.40
2019-02-19T21:16:33.822Z,67.30
2019-02-19T21:19:01.562Z,67.70
2019-02-19T21:21:30.705Z,67.60
2019-02-19T21:23:58.703Z,68.10
2019-02-19T21:26:27.393Z,67.90
2019-02-19T21:28:55.148Z,67.90
2019-02-19T21:31:22.961Z,68.10
2019-02-19T21:33:50.929Z,68.00
2019-02-19T21:36:18.279Z,68.00
2019-02-19T21:38:45.738Z,68.10
2019-02-19T21:41:13.347Z,68.30
2019-02-19T21:43:40.800Z,69.60
2019-02-19T21:46:08.298Z,69.50
2019-02-19T21:48:35.972Z,69.40
2019-02-19T21:51:03.475Z,69.00
2019-02-19T21:53:31.071Z,69.10
2019-02-19T21:55:58.737Z,69.70
2019-02-19T21:58:26.215Z,70.10
2019-02-19T22:00:53.887Z,70.80
2019-02-19T22:03:23.474Z,70.60
2019-02-19T22:05:51.259Z,70.80
2019-02-19T22:08:19.202Z,70.60
2019-02-19T22:10:46.996Z,70.90
2019-02-19T22:13:14.622Z,71.10
2019-02-19T22:15:42.626Z,71.60
2019-02-19T22:18:10.232Z,72.00
2019-02-19T22:20:59.735Z,71.90
2019-02-19T22:23:27.287Z,73.00
2019-02-19T22:25:55.087Z,72.60
2019-02-19T22:28:23.060Z,72.20
2019-02-19T22:30:50.623Z,72.90
2019-02-19T22:33:18.249Z,73.00
2019-02-19T22:35:45.605Z,73.60
2019-02-19T22:38:12.971Z,74.20
2019-02-19T22:40:40.362Z,74.60
2019-02-19T22:43:08.055Z,74.70
2019-02-19T22:45:35.934Z,74.20
2019-02-19T22:48:05.035Z,73.50
2019-02-19T22:50:32.798Z,73.70
2019-02-19T22:53:00.873Z,74.20
2019-02-19T22:55:53.362Z,73.90
2019-02-19T22:58:20.814Z,73.10
2019-02-19T23:01:01.964Z,72.90
2019-02-19T23:03:31.217Z,72.50
2019-02-19T23:05:59.101Z,72.20
2019-02-19T23:08:27.220Z,71.90
2019-02-19T23:11:05.398Z,72.80
2019-02-19T23:13:33.266Z,72.90
2019-02-19T23:16:01.457Z,72.40
2019-02-19T23:18:28.835Z,72.20
2019-02-19T23:20:56.745Z,72.50
2019-02-19T23:23:24.277Z,71.50
2019-02-19T23:25:51.927Z,71.40
2019-02-19T23:28:19.410Z,71.00
2019-02-19T23:30:46.898Z,70.80
2019-02-19T23:33:14.388Z,71.00
2019-02-19T23:35:55.886Z,70.60
2019-02-19T23:38:23.617Z,70.50
2019-02-19T23:40:51.104Z,70.90
2019-02-19T23:43:38.504Z,70.10
2019-02-19T23:46:06.251Z,69.60
2019-02-19T23:48:34.116Z,69.10
2019-02-19T23:51:01.451Z,68.60
2019-02-19T23:53:29.133Z,68.90
2019-02-19T23:55:56.580Z,69.30
2019-02-19T23:58:24.066Z,68.60
